sensor_id;sensor_type;location;lat;lon;timestamp;temperature;humidity
51637;DHT22;37713;53.254;6.460;2022-12-29T00:02:20;10.00;99.90
51637;DHT22;37713;53.254;6.460;2022-12-29T00:04:46;10.00;99.90
51637;DHT22;37713;53.254;6.460;2022-12-29T00:07:12;10.00;99.90
51637;DHT22;37713;53.254;6.460;2022-12-29T00:09:38;10.00;99.90
51637;DHT22;37713;53.254;6.460;2022-12-29T00:12:04;10.00;99.90
51637;DHT22;37713;53.254;6.460;2022-12-29T00:14:30;10.10;99.90
51637;DHT22;37713;53.254;6.460;2022-12-29T00:17:15;10.00;99.90
51637;DHT22;37713;53.254;6.460;2022-12-29T00:19:41;10.00;99.90
51637;DHT22;37713;53.254;6.460;2022-12-29T00:22:25;10.10;99.90
51637;DHT22;37713;53.254;6.460;2022-12-29T00:25:11;10.10;99.90
51637;DHT22;37713;53.254;6.460;2022-12-29T00:27:55;10.10;99.90
51637;DHT22;37713;53.254;6.460;2022-12-29T00:30:40;10.10;99.90
51637;DHT22;37713;53.254;6.460;2022-12-29T00:33:33;10.10;99.90
51637;DHT22;37713;53.254;6.460;2022-12-29T00:36:28;10.10;99.90
51637;DHT22;37713;53.254;6.460;2022-12-29T00:39:02;10.20;99.90
51637;DHT22;37713;53.254;6.460;2022-12-29T00:41:47;10.20;99.90
51637;DHT22;37713;53.254;6.460;2022-12-29T00:44:31;10.20;99.90
51637;DHT22;37713;53.254;6.460;2022-12-29T00:46:58;10.20;99.90
51637;DHT22;37713;53.254;6.460;2022-12-29T00:49:28;10.20;99.90
51637;DHT22;37713;53.254;6.460;2022-12-29T00:52:12;10.20;99.90
51637;DHT22;37713;53.254;6.460;2022-12-29T00:54:40;10.20;99.90
51637;DHT22;37713;53.254;6.460;2022-12-29T00:57:08;10.30;99.90
51637;DHT22;37713;53.254;6.460;2022-12-29T00:59:36;10.30;99.90
51637;DHT22;37713;53.254;6.460;2022-12-29T01:02:02;10.30;99.90
51637;DHT22;37713;53.254;6.460;2022-12-29T01:04:28;10.30;99.90
51637;DHT22;37713;53.254;6.460;2022-12-29T01:06:54;10.30;99.90
51637;DHT22;37713;53.254;6.460;2022-12-29T01:09:20;10.30;99.90
51637;DHT22;37713;53.254;6.460;2022-12-29T01:12:06;10.30;99.90
51637;DHT22;37713;53.254;6.460;2022-12-29T01:14:32;10.30;99.90
51637;DHT22;37713;53.254;6.460;2022-12-29T01:16:58;10.30;99.90
51637;DHT22;37713;53.254;6.460;2022-12-29T01:19:25;10.30;99.90
51637;DHT22;37713;53.254;6.460;2022-12-29T01:21:51;10.30;99.90
51637;DHT22;37713;53.254;6.460;2022-12-29T01:24:18;10.30;99.90
51637;DHT22;37713;53.254;6.460;2022-12-29T01:26:45;10.30;99.90
51637;DHT22;37713;53.254;6.460;2022-12-29T01:29:11;10.30;99.90
51637;DHT22;37713;53.254;6.460;2022-12-29T01:31:37;10.30;99.90
51637;DHT22;37713;53.254;6.460;2022-12-29T01:34:04;10.30;99.90
51637;DHT22;37713;53.254;6.460;2022-12-29T01:36:30;10.30;99.90
51637;DHT22;37713;53.254;6.460;2022-12-29T01:38:56;10.30;99.90
51637;DHT22;37713;53.254;6.460;2022-12-29T01:41:22;10.30;99.90
51637;DHT22;37713;53.254;6.460;2022-12-29T01:46:23;10.30;99.90
51637;DHT22;37713;53.254;6.460;2022-12-29T01:48:53;10.30;99.90
51637;DHT22;37713;53.254;6.460;2022-12-29T01:51:23;10.30;99.90
51637;DHT22;37713;53.254;6.460;2022-12-29T01:53:50;10.30;99.90
51637;DHT22;37713;53.254;6.460;2022-12-29T01:56:18;10.30;99.90
51637;DHT22;37713;53.254;6.460;2022-12-29T01:58:49;10.30;99.90
51637;DHT22;37713;53.254;6.460;2022-12-29T02:01:19;10.20;99.90
51637;DHT22;37713;53.254;6.460;2022-12-29T02:03:46;10.20;99.90
51637;DHT22;37713;53.254;6.460;2022-12-29T02:06:23;10.20;99.90
51637;DHT22;37713;53.254;6.460;2022-12-29T02:08:50;10.20;99.90
51637;DHT22;37713;53.254;6.460;2022-12-29T02:11:18;10.20;99.90
51637;DHT22;37713;53.254;6.460;2022-12-29T02:13:45;10.20;99.90
51637;DHT22;37713;53.254;6.460;2022-12-29T02:19:41;10.20;99.90
51637;DHT22;37713;53.254;6.460;2022-12-29T02:39:02;10.10;99.90
51637;DHT22;37713;53.254;6.460;2022-12-29T02:44:22;10.10;99.90
51637;DHT22;37713;53.254;6.460;2022-12-29T02:47:22;10.10;99.90
51637;DHT22;37713;53.254;6.460;2022-12-29T02:52:43;10.10;99.90
51637;DHT22;37713;53.254;6.460;2022-12-29T02:55:11;10.10;99.90
51637;DHT22;37713;53.254;6.460;2022-12-29T02:57:37;10.10;99.90
51637;DHT22;37713;53.254;6.460;2022-12-29T03:00:06;10.20;99.90
51637;DHT22;37713;53.254;6.460;2022-12-29T03:16:32;10.10;99.90
51637;DHT22;37713;53.254;6.460;2022-12-29T03:19:04;10.10;99.90
51637;DHT22;37713;53.254;6.460;2022-12-29T03:21:37;10.20;99.90
51637;DHT22;37713;53.254;6.460;2022-12-29T03:24:27;10.20;99.90
51637;DHT22;37713;53.254;6.460;2022-12-29T03:26:56;10.20;99.90
51637;DHT22;37713;53.254;6.460;2022-12-29T03:29:24;10.10;99.90
51637;DHT22;37713;53.254;6.460;2022-12-29T03:31:53;10.10;99.90
51637;DHT22;37713;53.254;6.460;2022-12-29T03:34:20;10.10;99.90
51637;DHT22;37713;53.254;6.460;2022-12-29T03:37:01;10.10;99.90
51637;DHT22;37713;53.254;6.460;2022-12-29T03:39:28;10.00;99.90
51637;DHT22;37713;53.254;6.460;2022-12-29T03:42:04;10.00;99.90
51637;DHT22;37713;53.254;6.460;2022-12-29T03:44:37;9.90;99.90
51637;DHT22;37713;53.254;6.460;2022-12-29T03:47:03;9.90;99.90
51637;DHT22;37713;53.254;6.460;2022-12-29T03:49:29;9.80;99.90
51637;DHT22;37713;53.254;6.460;2022-12-29T03:51:55;9.70;99.90
51637;DHT22;37713;53.254;6.460;2022-12-29T03:54:21;9.70;99.90
51637;DHT22;37713;53.254;6.460;2022-12-29T03:56:47;9.60;99.90
51637;DHT22;37713;53.254;6.460;2022-12-29T03:59:12;9.60;99.90
51637;DHT22;37713;53.254;6.460;2022-12-29T04:01:38;9.60;99.90
51637;DHT22;37713;53.254;6.460;2022-12-29T04:04:04;9.50;99.90
51637;DHT22;37713;53.254;6.460;2022-12-29T04:06:30;9.50;99.90
51637;DHT22;37713;53.254;6.460;2022-12-29T04:08:56;9.40;99.90
51637;DHT22;37713;53.254;6.460;2022-12-29T04:11:22;9.40;99.90
51637;DHT22;37713;53.254;6.460;2022-12-29T04:13:48;9.40;99.90
51637;DHT22;37713;53.254;6.460;2022-12-29T04:16:14;9.40;99.90
51637;DHT22;37713;53.254;6.460;2022-12-29T04:18:40;9.40;99.90
51637;DHT22;37713;53.254;6.460;2022-12-29T04:21:06;9.40;99.90
51637;DHT22;37713;53.254;6.460;2022-12-29T04:23:35;9.40;99.90
51637;DHT22;37713;53.254;6.460;2022-12-29T04:26:01;9.40;99.90
51637;DHT22;37713;53.254;6.460;2022-12-29T04:28:27;9.40;99.90
51637;DHT22;37713;53.254;6.460;2022-12-29T04:30:54;9.40;99.90
51637;DHT22;37713;53.254;6.460;2022-12-29T04:33:23;9.50;99.90
51637;DHT22;37713;53.254;6.460;2022-12-29T04:35:49;9.50;99.90
51637;DHT22;37713;53.254;6.460;2022-12-29T04:38:15;9.40;99.90
51637;DHT22;37713;53.254;6.460;2022-12-29T04:40:42;9.40;99.90
51637;DHT22;37713;53.254;6.460;2022-12-29T04:43:08;9.40;99.90
51637;DHT22;37713;53.254;6.460;2022-12-29T04:45:35;9.30;99.90
51637;DHT22;37713;53.254;6.460;2022-12-29T04:48:01;9.30;99.90
51637;DHT22;37713;53.254;6.460;2022-12-29T04:50:27;9.30;99.90
51637;DHT22;37713;53.254;6.460;2022-12-29T04:52:54;9.20;99.90
51637;DHT22;37713;53.254;6.460;2022-12-29T04:55:20;9.10;99.90
51637;DHT22;37713;53.254;6.460;2022-12-29T04:57:46;9.10;99.90
51637;DHT22;37713;53.254;6.460;2022-12-29T05:00:12;9.00;99.90
51637;DHT22;37713;53.254;6.460;2022-12-29T05:02:39;9.00;99.90
51637;DHT22;37713;53.254;6.460;2022-12-29T05:05:05;8.90;99.90
51637;DHT22;37713;53.254;6.460;2022-12-29T05:07:31;8.90;99.90
51637;DHT22;37713;53.254;6.460;2022-12-29T05:09:59;8.90;99.90
51637;DHT22;37713;53.254;6.460;2022-12-29T05:12:25;8.80;99.90
51637;DHT22;37713;53.254;6.460;2022-12-29T05:14:51;8.90;99.90
51637;DHT22;37713;53.254;6.460;2022-12-29T05:17:16;8.80;99.90
51637;DHT22;37713;53.254;6.460;2022-12-29T05:19:45;8.80;99.90
51637;DHT22;37713;53.254;6.460;2022-12-29T05:22:11;8.70;99.90
51637;DHT22;37713;53.254;6.460;2022-12-29T05:24:36;8.80;99.90
51637;DHT22;37713;53.254;6.460;2022-12-29T05:27:02;8.70;99.90
51637;DHT22;37713;53.254;6.460;2022-12-29T05:29:28;8.70;99.90
51637;DHT22;37713;53.254;6.460;2022-12-29T05:31:54;8.70;99.90
51637;DHT22;37713;53.254;6.460;2022-12-29T05:34:19;8.70;99.90
51637;DHT22;37713;53.254;6.460;2022-12-29T05:36:45;8.60;99.90
51637;DHT22;37713;53.254;6.460;2022-12-29T05:39:11;8.60;99.90
51637;DHT22;37713;53.254;6.460;2022-12-29T05:41:37;8.60;99.90
51637;DHT22;37713;53.254;6.460;2022-12-29T05:44:03;8.60;99.90
51637;DHT22;37713;53.254;6.460;2022-12-29T05:46:29;8.60;99.90
51637;DHT22;37713;53.254;6.460;2022-12-29T05:48:55;8.50;99.90
51637;DHT22;37713;53.254;6.460;2022-12-29T05:51:21;8.50;99.90
51637;DHT22;37713;53.254;6.460;2022-12-29T05:53:47;8.50;99.90
51637;DHT22;37713;53.254;6.460;2022-12-29T05:56:12;8.50;99.90
51637;DHT22;37713;53.254;6.460;2022-12-29T05:58:38;8.60;99.90
51637;DHT22;37713;53.254;6.460;2022-12-29T06:01:04;8.70;99.90
51637;DHT22;37713;53.254;6.460;2022-12-29T06:03:30;8.70;99.90
51637;DHT22;37713;53.254;6.460;2022-12-29T06:05:56;8.70;99.90
51637;DHT22;37713;53.254;6.460;2022-12-29T06:08:22;8.70;99.90
51637;DHT22;37713;53.254;6.460;2022-12-29T06:10:48;8.70;99.90
51637;DHT22;37713;53.254;6.460;2022-12-29T06:13:14;8.70;99.90
51637;DHT22;37713;53.254;6.460;2022-12-29T06:15:39;8.80;99.90
51637;DHT22;37713;53.254;6.460;2022-12-29T06:18:05;8.80;99.90
51637;DHT22;37713;53.254;6.460;2022-12-29T06:20:31;8.80;99.90
51637;DHT22;37713;53.254;6.460;2022-12-29T06:22:57;8.70;99.90
51637;DHT22;37713;53.254;6.460;2022-12-29T06:25:23;8.70;99.90
51637;DHT22;37713;53.254;6.460;2022-12-29T06:27:49;8.70;99.90
51637;DHT22;37713;53.254;6.460;2022-12-29T06:30:15;8.60;99.90
51637;DHT22;37713;53.254;6.460;2022-12-29T06:32:42;8.60;99.90
51637;DHT22;37713;53.254;6.460;2022-12-29T06:35:09;8.50;99.90
51637;DHT22;37713;53.254;6.460;2022-12-29T06:37:35;8.60;99.90
51637;DHT22;37713;53.254;6.460;2022-12-29T06:40:01;8.50;99.90
51637;DHT22;37713;53.254;6.460;2022-12-29T06:42:27;8.50;99.90
51637;DHT22;37713;53.254;6.460;2022-12-29T06:44:54;8.50;99.90
51637;DHT22;37713;53.254;6.460;2022-12-29T06:47:22;8.50;99.90
51637;DHT22;37713;53.254;6.460;2022-12-29T06:49:48;8.40;99.90
51637;DHT22;37713;53.254;6.460;2022-12-29T06:52:14;8.40;99.90
51637;DHT22;37713;53.254;6.460;2022-12-29T06:54:40;8.40;99.90
51637;DHT22;37713;53.254;6.460;2022-12-29T06:57:06;8.30;99.90
51637;DHT22;37713;53.254;6.460;2022-12-29T06:59:32;8.40;99.90
51637;DHT22;37713;53.254;6.460;2022-12-29T07:01:58;8.40;99.90
51637;DHT22;37713;53.254;6.460;2022-12-29T07:04:24;8.30;99.90
51637;DHT22;37713;53.254;6.460;2022-12-29T07:06:50;8.30;99.90
51637;DHT22;37713;53.254;6.460;2022-12-29T07:09:15;8.30;99.90
51637;DHT22;37713;53.254;6.460;2022-12-29T07:11:41;8.30;99.90
51637;DHT22;37713;53.254;6.460;2022-12-29T07:14:07;8.40;99.90
51637;DHT22;37713;53.254;6.460;2022-12-29T07:16:33;8.40;99.90
51637;DHT22;37713;53.254;6.460;2022-12-29T07:19:00;8.40;99.90
51637;DHT22;37713;53.254;6.460;2022-12-29T07:21:25;8.40;99.90
51637;DHT22;37713;53.254;6.460;2022-12-29T07:23:51;8.50;99.90
51637;DHT22;37713;53.254;6.460;2022-12-29T07:26:17;8.50;99.90
51637;DHT22;37713;53.254;6.460;2022-12-29T07:28:44;8.50;99.90
51637;DHT22;37713;53.254;6.460;2022-12-29T07:31:21;8.50;99.90
51637;DHT22;37713;53.254;6.460;2022-12-29T07:33:48;8.50;99.90
51637;DHT22;37713;53.254;6.460;2022-12-29T07:36:15;8.60;99.90
51637;DHT22;37713;53.254;6.460;2022-12-29T07:38:42;8.60;99.90
51637;DHT22;37713;53.254;6.460;2022-12-29T07:41:09;8.60;99.90
51637;DHT22;37713;53.254;6.460;2022-12-29T07:43:35;8.60;99.90
51637;DHT22;37713;53.254;6.460;2022-12-29T07:46:00;8.70;99.90
51637;DHT22;37713;53.254;6.460;2022-12-29T07:48:26;8.70;99.90
51637;DHT22;37713;53.254;6.460;2022-12-29T07:50:53;8.70;99.90
51637;DHT22;37713;53.254;6.460;2022-12-29T07:53:19;8.80;99.90
51637;DHT22;37713;53.254;6.460;2022-12-29T07:55:45;8.80;99.90
51637;DHT22;37713;53.254;6.460;2022-12-29T07:58:11;8.80;99.90
51637;DHT22;37713;53.254;6.460;2022-12-29T08:00:38;8.80;99.90
51637;DHT22;37713;53.254;6.460;2022-12-29T08:03:04;8.80;99.90
51637;DHT22;37713;53.254;6.460;2022-12-29T08:05:31;8.80;99.90
51637;DHT22;37713;53.254;6.460;2022-12-29T08:07:57;8.80;99.90
51637;DHT22;37713;53.254;6.460;2022-12-29T08:10:24;8.80;99.90
51637;DHT22;37713;53.254;6.460;2022-12-29T08:12:50;8.80;99.90
51637;DHT22;37713;53.254;6.460;2022-12-29T08:15:15;8.80;99.90
51637;DHT22;37713;53.254;6.460;2022-12-29T08:17:42;8.80;99.90
51637;DHT22;37713;53.254;6.460;2022-12-29T08:20:08;8.80;99.90
51637;DHT22;37713;53.254;6.460;2022-12-29T08:22:34;8.80;99.90
51637;DHT22;37713;53.254;6.460;2022-12-29T08:25:00;8.90;99.90
51637;DHT22;37713;53.254;6.460;2022-12-29T08:27:26;8.90;99.90
51637;DHT22;37713;53.254;6.460;2022-12-29T08:29:52;8.90;99.90
51637;DHT22;37713;53.254;6.460;2022-12-29T08:32:18;8.90;99.90
51637;DHT22;37713;53.254;6.460;2022-12-29T08:34:44;8.90;99.90
51637;DHT22;37713;53.254;6.460;2022-12-29T08:37:10;8.90;99.90
51637;DHT22;37713;53.254;6.460;2022-12-29T08:39:36;8.90;99.90
51637;DHT22;37713;53.254;6.460;2022-12-29T08:42:01;8.90;99.90
51637;DHT22;37713;53.254;6.460;2022-12-29T08:44:27;8.90;99.90
51637;DHT22;37713;53.254;6.460;2022-12-29T08:46:53;8.80;99.90
51637;DHT22;37713;53.254;6.460;2022-12-29T08:49:19;8.80;99.90
51637;DHT22;37713;53.254;6.460;2022-12-29T08:51:45;8.90;99.90
51637;DHT22;37713;53.254;6.460;2022-12-29T08:54:11;8.80;99.90
51637;DHT22;37713;53.254;6.460;2022-12-29T08:56:38;8.80;99.90
51637;DHT22;37713;53.254;6.460;2022-12-29T08:59:03;8.80;99.90
51637;DHT22;37713;53.254;6.460;2022-12-29T09:01:30;8.80;99.90
51637;DHT22;37713;53.254;6.460;2022-12-29T09:03:56;8.90;99.90
51637;DHT22;37713;53.254;6.460;2022-12-29T09:06:22;8.80;99.90
51637;DHT22;37713;53.254;6.460;2022-12-29T09:08:48;8.80;99.90
51637;DHT22;37713;53.254;6.460;2022-12-29T09:11:22;8.80;99.90
51637;DHT22;37713;53.254;6.460;2022-12-29T09:13:53;8.80;99.90
51637;DHT22;37713;53.254;6.460;2022-12-29T09:16:21;8.80;99.90
51637;DHT22;37713;53.254;6.460;2022-12-29T09:18:47;8.80;99.90
51637;DHT22;37713;53.254;6.460;2022-12-29T09:21:13;8.80;99.90
51637;DHT22;37713;53.254;6.460;2022-12-29T09:23:39;8.80;99.90
51637;DHT22;37713;53.254;6.460;2022-12-29T09:26:06;8.80;99.90
51637;DHT22;37713;53.254;6.460;2022-12-29T09:28:33;8.80;99.90
51637;DHT22;37713;53.254;6.460;2022-12-29T09:30:59;8.80;99.90
51637;DHT22;37713;53.254;6.460;2022-12-29T09:33:26;8.90;99.90
51637;DHT22;37713;53.254;6.460;2022-12-29T09:35:56;8.90;99.90
51637;DHT22;37713;53.254;6.460;2022-12-29T09:38:24;8.90;99.90
51637;DHT22;37713;53.254;6.460;2022-12-29T09:40:56;8.90;99.90
51637;DHT22;37713;53.254;6.460;2022-12-29T09:43:31;8.80;99.90
51637;DHT22;37713;53.254;6.460;2022-12-29T09:48:44;8.80;99.90
51637;DHT22;37713;53.254;6.460;2022-12-29T09:51:15;8.80;99.90
51637;DHT22;37713;53.254;6.460;2022-12-29T09:53:45;8.80;99.90
51637;DHT22;37713;53.254;6.460;2022-12-29T09:56:20;8.80;99.90
51637;DHT22;37713;53.254;6.460;2022-12-29T09:59:04;8.80;99.90
51637;DHT22;37713;53.254;6.460;2022-12-29T10:01:40;8.80;99.90
51637;DHT22;37713;53.254;6.460;2022-12-29T10:04:07;8.80;99.90
51637;DHT22;37713;53.254;6.460;2022-12-29T10:09:24;8.80;99.90
51637;DHT22;37713;53.254;6.460;2022-12-29T10:18:08;8.80;99.90
51637;DHT22;37713;53.254;6.460;2022-12-29T10:20:52;8.80;99.90
51637;DHT22;37713;53.254;6.460;2022-12-29T10:23:39;8.70;99.90
51637;DHT22;37713;53.254;6.460;2022-12-29T10:26:16;8.70;99.90
51637;DHT22;37713;53.254;6.460;2022-12-29T10:28:49;8.70;99.90
51637;DHT22;37713;53.254;6.460;2022-12-29T10:31:20;8.80;99.90
51637;DHT22;37713;53.254;6.460;2022-12-29T10:33:51;8.70;99.90
51637;DHT22;37713;53.254;6.460;2022-12-29T10:41:41;8.80;99.90
51637;DHT22;37713;53.254;6.460;2022-12-29T10:44:14;8.80;99.90
51637;DHT22;37713;53.254;6.460;2022-12-29T10:46:42;8.80;99.90
51637;DHT22;37713;53.254;6.460;2022-12-29T10:49:16;8.80;99.90
51637;DHT22;37713;53.254;6.460;2022-12-29T10:51:44;8.80;99.90
51637;DHT22;37713;53.254;6.460;2022-12-29T10:54:21;8.90;99.90
51637;DHT22;37713;53.254;6.460;2022-12-29T10:56:56;8.90;99.90
51637;DHT22;37713;53.254;6.460;2022-12-29T10:59:29;8.90;99.90
51637;DHT22;37713;53.254;6.460;2022-12-29T11:04:32;9.00;99.90
51637;DHT22;37713;53.254;6.460;2022-12-29T11:07:01;8.90;99.90
51637;DHT22;37713;53.254;6.460;2022-12-29T11:09:29;8.90;99.90
51637;DHT22;37713;53.254;6.460;2022-12-29T11:11:56;8.90;99.90
51637;DHT22;37713;53.254;6.460;2022-12-29T11:14:30;9.00;99.90
51637;DHT22;37713;53.254;6.460;2022-12-29T11:16:58;9.00;99.90
51637;DHT22;37713;53.254;6.460;2022-12-29T11:19:27;9.00;99.90
51637;DHT22;37713;53.254;6.460;2022-12-29T11:21:55;9.00;99.90
51637;DHT22;37713;53.254;6.460;2022-12-29T11:24:28;9.10;99.90
51637;DHT22;37713;53.254;6.460;2022-12-29T11:27:08;9.10;99.90
51637;DHT22;37713;53.254;6.460;2022-12-29T11:29:38;9.10;99.90
51637;DHT22;37713;53.254;6.460;2022-12-29T11:34:38;9.10;99.90
51637;DHT22;37713;53.254;6.460;2022-12-29T11:37:16;9.20;99.90
51637;DHT22;37713;53.254;6.460;2022-12-29T11:42:17;9.10;99.90
51637;DHT22;37713;53.254;6.460;2022-12-29T11:44:48;9.10;99.90
51637;DHT22;37713;53.254;6.460;2022-12-29T11:47:31;9.20;99.90
51637;DHT22;37713;53.254;6.460;2022-12-29T11:50:05;9.20;99.90
51637;DHT22;37713;53.254;6.460;2022-12-29T11:52:34;9.20;99.90
51637;DHT22;37713;53.254;6.460;2022-12-29T11:55:04;9.20;99.90
51637;DHT22;37713;53.254;6.460;2022-12-29T11:57:33;9.20;99.90
51637;DHT22;37713;53.254;6.460;2022-12-29T12:00:23;9.10;99.90
51637;DHT22;37713;53.254;6.460;2022-12-29T12:03:05;9.10;99.90
51637;DHT22;37713;53.254;6.460;2022-12-29T12:06:00;9.10;99.90
51637;DHT22;37713;53.254;6.460;2022-12-29T12:08:54;9.00;99.90
51637;DHT22;37713;53.254;6.460;2022-12-29T12:11:25;9.00;99.90
51637;DHT22;37713;53.254;6.460;2022-12-29T12:14:19;9.00;99.90
51637;DHT22;37713;53.254;6.460;2022-12-29T12:16:52;8.90;99.90
51637;DHT22;37713;53.254;6.460;2022-12-29T12:19:38;9.00;99.90
51637;DHT22;37713;53.254;6.460;2022-12-29T12:22:16;9.00;99.90
51637;DHT22;37713;53.254;6.460;2022-12-29T12:30:02;9.10;99.90
51637;DHT22;37713;53.254;6.460;2022-12-29T12:38:16;9.20;99.90
51637;DHT22;37713;53.254;6.460;2022-12-29T12:41:00;9.10;99.90
51637;DHT22;37713;53.254;6.460;2022-12-29T12:44:02;9.10;99.90
51637;DHT22;37713;53.254;6.460;2022-12-29T12:49:47;9.00;99.90
51637;DHT22;37713;53.254;6.460;2022-12-29T13:08:45;8.90;99.90
51637;DHT22;37713;53.254;6.460;2022-12-29T13:30:15;8.70;99.90
51637;DHT22;37713;53.254;6.460;2022-12-29T13:32:47;8.70;99.90
51637;DHT22;37713;53.254;6.460;2022-12-29T13:38:25;8.50;99.90
51637;DHT22;37713;53.254;6.460;2022-12-29T13:41:18;8.50;99.90
51637;DHT22;37713;53.254;6.460;2022-12-29T13:43:46;8.40;99.90
51637;DHT22;37713;53.254;6.460;2022-12-29T13:46:16;8.40;99.90
51637;DHT22;37713;53.254;6.460;2022-12-29T13:51:40;8.20;99.90
51637;DHT22;37713;53.254;6.460;2022-12-29T13:54:22;8.20;99.90
51637;DHT22;37713;53.254;6.460;2022-12-29T13:56:58;8.30;99.90
51637;DHT22;37713;53.254;6.460;2022-12-29T13:59:57;8.40;99.90
51637;DHT22;37713;53.254;6.460;2022-12-29T14:07:43;8.40;99.90
51637;DHT22;37713;53.254;6.460;2022-12-29T14:10:30;8.50;99.90
51637;DHT22;37713;53.254;6.460;2022-12-29T14:15:44;8.50;99.90
51637;DHT22;37713;53.254;6.460;2022-12-29T14:18:21;8.50;99.90
51637;DHT22;37713;53.254;6.460;2022-12-29T14:21:03;8.40;99.90
51637;DHT22;37713;53.254;6.460;2022-12-29T14:28:33;8.20;99.90
51637;DHT22;37713;53.254;6.460;2022-12-29T14:31:01;8.20;99.90
51637;DHT22;37713;53.254;6.460;2022-12-29T14:33:32;8.20;99.90
51637;DHT22;37713;53.254;6.460;2022-12-29T14:36:33;8.10;99.90
51637;DHT22;37713;53.254;6.460;2022-12-29T14:38:59;8.10;99.90
51637;DHT22;37713;53.254;6.460;2022-12-29T14:41:41;8.00;99.90
51637;DHT22;37713;53.254;6.460;2022-12-29T14:49:32;7.90;99.90
51637;DHT22;37713;53.254;6.460;2022-12-29T14:52:17;7.80;99.90
51637;DHT22;37713;53.254;6.460;2022-12-29T14:54:46;7.80;99.90
51637;DHT22;37713;53.254;6.460;2022-12-29T14:57:27;7.70;99.90
51637;DHT22;37713;53.254;6.460;2022-12-29T14:59:58;7.70;99.90
51637;DHT22;37713;53.254;6.460;2022-12-29T15:02:33;7.70;99.90
51637;DHT22;37713;53.254;6.460;2022-12-29T15:05:00;7.60;99.90
51637;DHT22;37713;53.254;6.460;2022-12-29T15:07:27;7.60;99.90
51637;DHT22;37713;53.254;6.460;2022-12-29T15:10:00;7.50;99.90
51637;DHT22;37713;53.254;6.460;2022-12-29T15:12:31;7.50;99.90
51637;DHT22;37713;53.254;6.460;2022-12-29T15:15:00;7.50;99.90
51637;DHT22;37713;53.254;6.460;2022-12-29T15:19:55;7.40;99.90
51637;DHT22;37713;53.254;6.460;2022-12-29T15:22:21;7.40;99.90
51637;DHT22;37713;53.254;6.460;2022-12-29T15:24:50;7.40;99.90
51637;DHT22;37713;53.254;6.460;2022-12-29T15:27:24;7.40;99.90
51637;DHT22;37713;53.254;6.460;2022-12-29T15:30:03;7.30;99.90
51637;DHT22;37713;53.254;6.460;2022-12-29T15:32:43;7.30;99.90
51637;DHT22;37713;53.254;6.460;2022-12-29T15:37:49;7.30;99.90
51637;DHT22;37713;53.254;6.460;2022-12-29T15:40:32;7.30;99.90
51637;DHT22;37713;53.254;6.460;2022-12-29T15:43:24;7.20;99.90
51637;DHT22;37713;53.254;6.460;2022-12-29T15:45:54;7.30;99.90
51637;DHT22;37713;53.254;6.460;2022-12-29T15:48:24;7.30;99.90
51637;DHT22;37713;53.254;6.460;2022-12-29T15:50:51;7.20;99.90
51637;DHT22;37713;53.254;6.460;2022-12-29T15:53:23;7.30;99.90
51637;DHT22;37713;53.254;6.460;2022-12-29T15:55:59;7.30;99.90
51637;DHT22;37713;53.254;6.460;2022-12-29T15:58:29;7.30;99.90
51637;DHT22;37713;53.254;6.460;2022-12-29T16:01:01;7.20;99.90
51637;DHT22;37713;53.254;6.460;2022-12-29T16:03:29;7.20;99.90
51637;DHT22;37713;53.254;6.460;2022-12-29T16:06:07;7.20;99.90
51637;DHT22;37713;53.254;6.460;2022-12-29T16:08:38;7.20;99.90
51637;DHT22;37713;53.254;6.460;2022-12-29T16:11:42;7.20;99.90
51637;DHT22;37713;53.254;6.460;2022-12-29T16:14:14;7.30;99.90
51637;DHT22;37713;53.254;6.460;2022-12-29T16:16:43;7.40;99.90
51637;DHT22;37713;53.254;6.460;2022-12-29T16:19:24;7.50;99.90
51637;DHT22;37713;53.254;6.460;2022-12-29T16:21:53;7.50;99.90
51637;DHT22;37713;53.254;6.460;2022-12-29T16:24:22;7.60;99.90
51637;DHT22;37713;53.254;6.460;2022-12-29T16:29:33;7.60;99.90
51637;DHT22;37713;53.254;6.460;2022-12-29T16:32:00;7.50;99.90
51637;DHT22;37713;53.254;6.460;2022-12-29T16:34:33;7.50;99.90
51637;DHT22;37713;53.254;6.460;2022-12-29T16:37:25;7.50;99.90
51637;DHT22;37713;53.254;6.460;2022-12-29T16:39:52;7.40;99.90
51637;DHT22;37713;53.254;6.460;2022-12-29T16:42:45;7.40;99.90
51637;DHT22;37713;53.254;6.460;2022-12-29T16:47:45;7.10;99.90
51637;DHT22;37713;53.254;6.460;2022-12-29T16:50:16;7.10;99.90
51637;DHT22;37713;53.254;6.460;2022-12-29T16:52:48;7.00;99.90
51637;DHT22;37713;53.254;6.460;2022-12-29T16:55:17;6.90;99.90
51637;DHT22;37713;53.254;6.460;2022-12-29T16:57:44;6.90;99.90
51637;DHT22;37713;53.254;6.460;2022-12-29T17:00:20;6.90;99.90
51637;DHT22;37713;53.254;6.460;2022-12-29T17:02:48;6.80;99.90
51637;DHT22;37713;53.254;6.460;2022-12-29T17:05:16;6.90;99.90
51637;DHT22;37713;53.254;6.460;2022-12-29T17:07:43;6.80;99.90
51637;DHT22;37713;53.254;6.460;2022-12-29T17:10:09;6.80;99.90
51637;DHT22;37713;53.254;6.460;2022-12-29T17:12:36;6.80;99.90
51637;DHT22;37713;53.254;6.460;2022-12-29T17:15:27;6.70;99.90
51637;DHT22;37713;53.254;6.460;2022-12-29T17:17:54;6.70;99.90
51637;DHT22;37713;53.254;6.460;2022-12-29T17:20:26;6.70;99.90
51637;DHT22;37713;53.254;6.460;2022-12-29T17:22:52;6.70;99.90
51637;DHT22;37713;53.254;6.460;2022-12-29T17:25:21;6.70;99.90
51637;DHT22;37713;53.254;6.460;2022-12-29T17:30:20;6.80;99.90
51637;DHT22;37713;53.254;6.460;2022-12-29T17:33:14;6.70;99.90
51637;DHT22;37713;53.254;6.460;2022-12-29T17:35:41;6.80;99.90
51637;DHT22;37713;53.254;6.460;2022-12-29T17:40:43;6.80;99.90
51637;DHT22;37713;53.254;6.460;2022-12-29T17:43:12;6.80;99.90
51637;DHT22;37713;53.254;6.460;2022-12-29T17:45:40;6.80;99.90
51637;DHT22;37713;53.254;6.460;2022-12-29T17:48:16;6.80;99.90
51637;DHT22;37713;53.254;6.460;2022-12-29T17:50:43;6.90;99.90
51637;DHT22;37713;53.254;6.460;2022-12-29T17:53:13;6.90;99.90
51637;DHT22;37713;53.254;6.460;2022-12-29T17:55:40;6.90;99.90
51637;DHT22;37713;53.254;6.460;2022-12-29T18:00:50;7.00;99.90
51637;DHT22;37713;53.254;6.460;2022-12-29T18:03:20;7.00;99.90
51637;DHT22;37713;53.254;6.460;2022-12-29T18:05:46;7.00;99.90
51637;DHT22;37713;53.254;6.460;2022-12-29T18:08:15;7.00;99.90
51637;DHT22;37713;53.254;6.460;2022-12-29T18:10:41;7.00;99.90
51637;DHT22;37713;53.254;6.460;2022-12-29T18:13:19;7.00;99.90
51637;DHT22;37713;53.254;6.460;2022-12-29T18:15:46;7.00;99.90
51637;DHT22;37713;53.254;6.460;2022-12-29T18:18:18;7.10;99.90
51637;DHT22;37713;53.254;6.460;2022-12-29T18:20:45;7.00;99.90
51637;DHT22;37713;53.254;6.460;2022-12-29T18:23:20;7.00;99.90
51637;DHT22;37713;53.254;6.460;2022-12-29T18:25:57;6.90;99.90
51637;DHT22;37713;53.254;6.460;2022-12-29T18:28:24;6.80;99.90
51637;DHT22;37713;53.254;6.460;2022-12-29T18:30:50;6.90;99.90
51637;DHT22;37713;53.254;6.460;2022-12-29T18:33:18;6.90;99.90
51637;DHT22;37713;53.254;6.460;2022-12-29T18:35:51;6.90;99.90
51637;DHT22;37713;53.254;6.460;2022-12-29T18:38:17;6.90;99.90
51637;DHT22;37713;53.254;6.460;2022-12-29T18:40:43;6.90;99.90
51637;DHT22;37713;53.254;6.460;2022-12-29T18:43:13;6.80;99.90